OIIE/IKA METAR and TAF weather

Enter ICAO airport designator
Station Type Date Time Source
OIIE METAR 2020/11/25 23:00 UTC NOAA

OIIE 252300Z 24004KT 3500 BR SCT100 BKN200 07/04 Q1020


Station Type Date Time Source
OIIE Decoded METAR 2020/11/25 23:00 UTC NOAA

Station name not available
Nov 25, 2020 - 06:00 PM EST / 2020.11.25 2300 UTC
Wind: from the WSW (240 degrees) at 5 MPH (4 KT):0
Visibility: 2 mile(s):0
Sky conditions: mostly cloudy
Weather: mist
Temperature: 44 F (7 C)
Dew Point: 39 F (4 C)
Relative Humidity: 81%
Pressure (altimeter): 30.12 in. Hg (1020 hPa)
ob: OIIE 252300Z 24004KT 3500 BR SCT100 BKN200 07/04 Q1020
cycle: 23

Station Type Date Time Source
OIIE TAF 2020/11/25 18:00 UTC NOAA

TAF OIIE 251730Z 2518/2624 12008KT 5000 HZ/BR FEW045 BKN120
TEMPO 2600/2605 1500 BR BKN025 BKN090
BECMG 2604/2606 FEW035CB SCT040 BKN100 PROB40
TEMPO 2609/2614 3000 SHRA
TEMPO 2615/2621 3000 RA BR
BECMG 2622/2624 3000 BR

Example: see airport list